sensor_id;sensor_type;location;lat;lon;timestamp;P1;durP1;ratioP1;P2;durP2;ratioP2
41099;SDS011;26844;53.686;-6.346;2024-03-22T00:02:05;1.98;;;1.98;;
41099;SDS011;26844;53.686;-6.346;2024-03-22T00:04:30;2.17;;;2.17;;
41099;SDS011;26844;53.686;-6.346;2024-03-22T00:06:55;1.88;;;1.88;;
41099;SDS011;26844;53.686;-6.346;2024-03-22T00:09:21;2.22;;;2.22;;
41099;SDS011;26844;53.686;-6.346;2024-03-22T00:11:46;2.00;;;2.00;;
41099;SDS011;26844;53.686;-6.346;2024-03-22T00:14:11;2.47;;;2.38;;
41099;SDS011;26844;53.686;-6.346;2024-03-22T00:16:37;2.22;;;2.22;;
41099;SDS011;26844;53.686;-6.346;2024-03-22T00:19:02;2.70;;;2.60;;
41099;SDS011;26844;53.686;-6.346;2024-03-22T00:21:28;2.90;;;2.80;;
41099;SDS011;26844;53.686;-6.346;2024-03-22T00:23:54;2.67;;;2.58;;
41099;SDS011;26844;53.686;-6.346;2024-03-22T00:26:20;3.35;;;3.25;;
41099;SDS011;26844;53.686;-6.346;2024-03-22T00:28:45;3.17;;;3.08;;
41099;SDS011;26844;53.686;-6.346;2024-03-22T00:31:10;2.80;;;2.70;;
41099;SDS011;26844;53.686;-6.346;2024-03-22T00:33:36;3.10;;;3.00;;
41099;SDS011;26844;53.686;-6.346;2024-03-22T00:36:01;3.67;;;3.58;;
41099;SDS011;26844;53.686;-6.346;2024-03-22T00:38:26;4.00;;;3.90;;
41099;SDS011;26844;53.686;-6.346;2024-03-22T00:40:52;3.90;;;3.80;;
41099;SDS011;26844;53.686;-6.346;2024-03-22T00:43:17;3.78;;;3.67;;
41099;SDS011;26844;53.686;-6.346;2024-03-22T00:45:42;3.95;;;3.85;;
41099;SDS011;26844;53.686;-6.346;2024-03-22T00:48:07;3.80;;;3.70;;
41099;SDS011;26844;53.686;-6.346;2024-03-22T00:50:33;3.60;;;3.50;;
41099;SDS011;26844;53.686;-6.346;2024-03-22T00:52:58;3.00;;;2.90;;
41099;SDS011;26844;53.686;-6.346;2024-03-22T00:55:23;2.70;;;2.60;;
41099;SDS011;26844;53.686;-6.346;2024-03-22T00:57:49;2.50;;;2.40;;
41099;SDS011;26844;53.686;-6.346;2024-03-22T01:00:15;2.92;;;2.83;;
41099;SDS011;26844;53.686;-6.346;2024-03-22T01:02:40;3.17;;;3.08;;
41099;SDS011;26844;53.686;-6.346;2024-03-22T01:05:06;2.50;;;2.40;;
41099;SDS011;26844;53.686;-6.346;2024-03-22T01:07:31;2.28;;;2.28;;
41099;SDS011;26844;53.686;-6.346;2024-03-22T01:09:56;2.47;;;2.38;;
41099;SDS011;26844;53.686;-6.346;2024-03-22T01:12:22;2.80;;;2.70;;
41099;SDS011;26844;53.686;-6.346;2024-03-22T01:14:47;2.50;;;2.40;;
41099;SDS011;26844;53.686;-6.346;2024-03-22T01:17:12;2.53;;;2.42;;
41099;SDS011;26844;53.686;-6.346;2024-03-22T01:19:37;2.60;;;2.50;;
41099;SDS011;26844;53.686;-6.346;2024-03-22T01:22:03;2.60;;;2.50;;
41099;SDS011;26844;53.686;-6.346;2024-03-22T01:24:28;2.80;;;2.70;;
41099;SDS011;26844;53.686;-6.346;2024-03-22T01:26:54;2.38;;;2.30;;
41099;SDS011;26844;53.686;-6.346;2024-03-22T01:29:20;2.50;;;2.40;;
41099;SDS011;26844;53.686;-6.346;2024-03-22T01:31:45;2.53;;;2.42;;
41099;SDS011;26844;53.686;-6.346;2024-03-22T01:34:10;2.30;;;2.30;;
41099;SDS011;26844;53.686;-6.346;2024-03-22T01:36:35;2.60;;;2.50;;
41099;SDS011;26844;53.686;-6.346;2024-03-22T01:39:01;2.50;;;2.40;;
41099;SDS011;26844;53.686;-6.346;2024-03-22T01:41:26;2.60;;;2.50;;
41099;SDS011;26844;53.686;-6.346;2024-03-22T01:43:52;3.03;;;2.92;;
41099;SDS011;26844;53.686;-6.346;2024-03-22T01:46:17;2.67;;;2.58;;
41099;SDS011;26844;53.686;-6.346;2024-03-22T01:48:42;2.60;;;2.50;;
41099;SDS011;26844;53.686;-6.346;2024-03-22T01:51:07;2.60;;;2.50;;
41099;SDS011;26844;53.686;-6.346;2024-03-22T01:53:34;2.88;;;2.78;;
41099;SDS011;26844;53.686;-6.346;2024-03-22T01:55:59;2.60;;;2.50;;
41099;SDS011;26844;53.686;-6.346;2024-03-22T01:58:25;2.70;;;2.60;;
41099;SDS011;26844;53.686;-6.346;2024-03-22T02:00:50;2.67;;;2.58;;
41099;SDS011;26844;53.686;-6.346;2024-03-22T02:03:15;2.10;;;2.10;;
41099;SDS011;26844;53.686;-6.346;2024-03-22T02:05:41;2.50;;;2.40;;
41099;SDS011;26844;53.686;-6.346;2024-03-22T02:08:06;2.60;;;2.50;;
41099;SDS011;26844;53.686;-6.346;2024-03-22T02:10:31;2.20;;;2.20;;
41099;SDS011;26844;53.686;-6.346;2024-03-22T02:12:57;2.55;;;2.45;;
41099;SDS011;26844;53.686;-6.346;2024-03-22T02:15:22;2.30;;;2.30;;
41099;SDS011;26844;53.686;-6.346;2024-03-22T02:17:48;2.00;;;2.00;;
41099;SDS011;26844;53.686;-6.346;2024-03-22T02:20:13;1.90;;;1.90;;
41099;SDS011;26844;53.686;-6.346;2024-03-22T02:22:38;2.10;;;2.10;;
41099;SDS011;26844;53.686;-6.346;2024-03-22T02:25:04;1.80;;;1.80;;
41099;SDS011;26844;53.686;-6.346;2024-03-22T02:27:29;2.13;;;2.13;;
41099;SDS011;26844;53.686;-6.346;2024-03-22T02:29:54;1.85;;;1.85;;
41099;SDS011;26844;53.686;-6.346;2024-03-22T02:32:20;1.88;;;1.88;;
41099;SDS011;26844;53.686;-6.346;2024-03-22T02:34:45;2.20;;;2.20;;
41099;SDS011;26844;53.686;-6.346;2024-03-22T02:37:10;2.40;;;2.30;;
41099;SDS011;26844;53.686;-6.346;2024-03-22T02:39:35;1.80;;;1.80;;
41099;SDS011;26844;53.686;-6.346;2024-03-22T02:42:01;1.58;;;1.58;;
41099;SDS011;26844;53.686;-6.346;2024-03-22T02:44:26;1.80;;;1.80;;
41099;SDS011;26844;53.686;-6.346;2024-03-22T02:46:51;2.22;;;2.22;;
41099;SDS011;26844;53.686;-6.346;2024-03-22T02:49:16;1.60;;;1.60;;
41099;SDS011;26844;53.686;-6.346;2024-03-22T02:51:42;1.90;;;1.90;;
41099;SDS011;26844;53.686;-6.346;2024-03-22T02:54:07;2.00;;;2.00;;
41099;SDS011;26844;53.686;-6.346;2024-03-22T02:56:32;1.67;;;1.67;;
41099;SDS011;26844;53.686;-6.346;2024-03-22T02:58:57;2.08;;;2.08;;
41099;SDS011;26844;53.686;-6.346;2024-03-22T03:01:23;1.90;;;1.90;;
41099;SDS011;26844;53.686;-6.346;2024-03-22T03:03:48;1.90;;;1.90;;
41099;SDS011;26844;53.686;-6.346;2024-03-22T03:06:13;2.50;;;2.40;;
41099;SDS011;26844;53.686;-6.346;2024-03-22T03:08:40;2.63;;;2.53;;
41099;SDS011;26844;53.686;-6.346;2024-03-22T03:11:05;2.90;;;2.80;;
41099;SDS011;26844;53.686;-6.346;2024-03-22T03:13:30;2.50;;;2.40;;
41099;SDS011;26844;53.686;-6.346;2024-03-22T03:15:56;2.85;;;2.75;;
41099;SDS011;26844;53.686;-6.346;2024-03-22T03:18:21;2.45;;;2.35;;
41099;SDS011;26844;53.686;-6.346;2024-03-22T03:20:46;3.10;;;3.00;;
41099;SDS011;26844;53.686;-6.346;2024-03-22T03:23:12;3.10;;;3.00;;
41099;SDS011;26844;53.686;-6.346;2024-03-22T03:25:37;2.95;;;2.85;;
41099;SDS011;26844;53.686;-6.346;2024-03-22T03:28:02;3.10;;;3.00;;
41099;SDS011;26844;53.686;-6.346;2024-03-22T03:30:27;3.00;;;2.90;;
41099;SDS011;26844;53.686;-6.346;2024-03-22T03:32:53;2.88;;;2.78;;
41099;SDS011;26844;53.686;-6.346;2024-03-22T03:35:18;3.13;;;3.03;;
41099;SDS011;26844;53.686;-6.346;2024-03-22T03:37:44;3.08;;;2.97;;
41099;SDS011;26844;53.686;-6.346;2024-03-22T03:40:09;3.03;;;2.92;;
41099;SDS011;26844;53.686;-6.346;2024-03-22T03:42:34;2.90;;;2.80;;
41099;SDS011;26844;53.686;-6.346;2024-03-22T03:45:00;3.38;;;3.28;;
41099;SDS011;26844;53.686;-6.346;2024-03-22T03:47:25;3.00;;;2.90;;
41099;SDS011;26844;53.686;-6.346;2024-03-22T03:49:50;2.88;;;2.78;;
41099;SDS011;26844;53.686;-6.346;2024-03-22T03:52:17;3.00;;;2.90;;
41099;SDS011;26844;53.686;-6.346;2024-03-22T03:54:42;2.88;;;2.78;;
41099;SDS011;26844;53.686;-6.346;2024-03-22T03:57:08;2.30;;;2.30;;
41099;SDS011;26844;53.686;-6.346;2024-03-22T03:59:33;2.72;;;2.63;;
41099;SDS011;26844;53.686;-6.346;2024-03-22T04:01:58;2.83;;;2.72;;
41099;SDS011;26844;53.686;-6.346;2024-03-22T04:04:23;2.53;;;2.42;;
41099;SDS011;26844;53.686;-6.346;2024-03-22T04:06:49;2.20;;;2.20;;
41099;SDS011;26844;53.686;-6.346;2024-03-22T04:09:14;2.75;;;2.65;;
41099;SDS011;26844;53.686;-6.346;2024-03-22T04:11:39;2.58;;;2.47;;
41099;SDS011;26844;53.686;-6.346;2024-03-22T04:14:05;2.67;;;2.58;;
41099;SDS011;26844;53.686;-6.346;2024-03-22T04:16:30;2.53;;;2.42;;
41099;SDS011;26844;53.686;-6.346;2024-03-22T04:18:56;2.70;;;2.60;;
41099;SDS011;26844;53.686;-6.346;2024-03-22T04:21:21;3.17;;;3.08;;
41099;SDS011;26844;53.686;-6.346;2024-03-22T04:23:46;2.50;;;2.40;;
41099;SDS011;26844;53.686;-6.346;2024-03-22T04:26:12;2.85;;;2.75;;
41099;SDS011;26844;53.686;-6.346;2024-03-22T04:28:37;3.00;;;2.90;;
41099;SDS011;26844;53.686;-6.346;2024-03-22T04:31:03;2.65;;;2.55;;
41099;SDS011;26844;53.686;-6.346;2024-03-22T04:33:29;3.30;;;3.20;;
41099;SDS011;26844;53.686;-6.346;2024-03-22T04:35:55;3.63;;;3.53;;
41099;SDS011;26844;53.686;-6.346;2024-03-22T04:38:21;3.40;;;3.30;;
41099;SDS011;26844;53.686;-6.346;2024-03-22T04:40:46;3.72;;;3.63;;
41099;SDS011;26844;53.686;-6.346;2024-03-22T04:43:11;3.95;;;3.85;;
41099;SDS011;26844;53.686;-6.346;2024-03-22T04:45:37;3.40;;;3.30;;
41099;SDS011;26844;53.686;-6.346;2024-03-22T04:48:03;3.80;;;3.70;;
41099;SDS011;26844;53.686;-6.346;2024-03-22T04:50:28;3.58;;;3.47;;
41099;SDS011;26844;53.686;-6.346;2024-03-22T04:52:54;3.75;;;3.65;;
41099;SDS011;26844;53.686;-6.346;2024-03-22T04:55:19;4.03;;;3.92;;
41099;SDS011;26844;53.686;-6.346;2024-03-22T04:57:44;3.83;;;3.72;;
41099;SDS011;26844;53.686;-6.346;2024-03-22T05:00:10;3.85;;;3.75;;
41099;SDS011;26844;53.686;-6.346;2024-03-22T05:02:35;3.63;;;3.53;;
41099;SDS011;26844;53.686;-6.346;2024-03-22T05:05:00;3.97;;;3.88;;
41099;SDS011;26844;53.686;-6.346;2024-03-22T05:07:26;4.32;;;4.22;;
41099;SDS011;26844;53.686;-6.346;2024-03-22T05:09:51;4.00;;;3.90;;
41099;SDS011;26844;53.686;-6.346;2024-03-22T05:12:16;4.15;;;4.05;;
41099;SDS011;26844;53.686;-6.346;2024-03-22T05:14:42;4.28;;;4.18;;
41099;SDS011;26844;53.686;-6.346;2024-03-22T05:17:07;5.05;;;4.85;;
41099;SDS011;26844;53.686;-6.346;2024-03-22T05:19:32;4.40;;;4.30;;
41099;SDS011;26844;53.686;-6.346;2024-03-22T05:21:58;4.75;;;4.63;;
41099;SDS011;26844;53.686;-6.346;2024-03-22T05:24:23;4.40;;;4.30;;
41099;SDS011;26844;53.686;-6.346;2024-03-22T05:26:49;4.65;;;4.55;;
41099;SDS011;26844;53.686;-6.346;2024-03-22T05:29:14;4.85;;;4.68;;
41099;SDS011;26844;53.686;-6.346;2024-03-22T05:31:46;4.22;;;4.13;;
41099;SDS011;26844;53.686;-6.346;2024-03-22T05:34:13;4.38;;;4.28;;
41099;SDS011;26844;53.686;-6.346;2024-03-22T05:36:39;4.10;;;4.00;;
41099;SDS011;26844;53.686;-6.346;2024-03-22T05:39:04;4.22;;;4.13;;
41099;SDS011;26844;53.686;-6.346;2024-03-22T05:41:30;4.30;;;4.20;;
41099;SDS011;26844;53.686;-6.346;2024-03-22T05:43:55;5.05;;;4.85;;
41099;SDS011;26844;53.686;-6.346;2024-03-22T05:46:20;4.78;;;4.63;;
41099;SDS011;26844;53.686;-6.346;2024-03-22T05:48:45;5.07;;;4.88;;
41099;SDS011;26844;53.686;-6.346;2024-03-22T05:51:13;4.85;;;4.68;;
41099;SDS011;26844;53.686;-6.346;2024-03-22T05:53:38;5.18;;;4.97;;
41099;SDS011;26844;53.686;-6.346;2024-03-22T05:56:04;4.95;;;4.75;;
41099;SDS011;26844;53.686;-6.346;2024-03-22T05:58:29;4.10;;;4.00;;
41099;SDS011;26844;53.686;-6.346;2024-03-22T06:00:55;3.60;;;3.50;;
41099;SDS011;26844;53.686;-6.346;2024-03-22T06:03:21;2.97;;;2.88;;
41099;SDS011;26844;53.686;-6.346;2024-03-22T06:05:46;3.20;;;3.10;;
41099;SDS011;26844;53.686;-6.346;2024-03-22T06:08:11;3.50;;;3.40;;
41099;SDS011;26844;53.686;-6.346;2024-03-22T06:10:36;3.40;;;3.30;;
41099;SDS011;26844;53.686;-6.346;2024-03-22T06:13:01;3.53;;;3.42;;
41099;SDS011;26844;53.686;-6.346;2024-03-22T06:15:28;3.67;;;3.58;;
41099;SDS011;26844;53.686;-6.346;2024-03-22T06:17:53;3.60;;;3.50;;
41099;SDS011;26844;53.686;-6.346;2024-03-22T06:20:18;3.72;;;3.63;;
41099;SDS011;26844;53.686;-6.346;2024-03-22T06:22:44;3.83;;;3.72;;
41099;SDS011;26844;53.686;-6.346;2024-03-22T06:25:09;3.55;;;3.45;;
41099;SDS011;26844;53.686;-6.346;2024-03-22T06:27:34;3.88;;;3.78;;
41099;SDS011;26844;53.686;-6.346;2024-03-22T06:29:59;3.90;;;3.80;;
41099;SDS011;26844;53.686;-6.346;2024-03-22T06:32:25;4.13;;;4.03;;
41099;SDS011;26844;53.686;-6.346;2024-03-22T06:34:50;3.45;;;3.35;;
41099;SDS011;26844;53.686;-6.346;2024-03-22T06:37:16;3.80;;;3.70;;
41099;SDS011;26844;53.686;-6.346;2024-03-22T06:39:41;4.13;;;4.03;;
41099;SDS011;26844;53.686;-6.346;2024-03-22T06:42:06;5.05;;;4.85;;
41099;SDS011;26844;53.686;-6.346;2024-03-22T06:44:31;4.30;;;4.20;;
41099;SDS011;26844;53.686;-6.346;2024-03-22T06:46:57;5.55;;;5.35;;
41099;SDS011;26844;53.686;-6.346;2024-03-22T06:49:22;4.40;;;4.30;;
41099;SDS011;26844;53.686;-6.346;2024-03-22T06:51:47;4.75;;;4.60;;
41099;SDS011;26844;53.686;-6.346;2024-03-22T06:54:12;4.57;;;4.47;;
41099;SDS011;26844;53.686;-6.346;2024-03-22T06:56:38;4.82;;;4.68;;
41099;SDS011;26844;53.686;-6.346;2024-03-22T06:59:03;4.57;;;4.47;;
41099;SDS011;26844;53.686;-6.346;2024-03-22T07:01:28;3.97;;;3.88;;
41099;SDS011;26844;53.686;-6.346;2024-03-22T07:03:54;3.95;;;3.85;;
41099;SDS011;26844;53.686;-6.346;2024-03-22T07:06:19;3.83;;;3.72;;
41099;SDS011;26844;53.686;-6.346;2024-03-22T07:08:45;3.40;;;3.30;;
41099;SDS011;26844;53.686;-6.346;2024-03-22T07:11:10;3.90;;;3.80;;
41099;SDS011;26844;53.686;-6.346;2024-03-22T07:13:36;4.00;;;3.90;;
41099;SDS011;26844;53.686;-6.346;2024-03-22T07:16:03;3.67;;;3.58;;
41099;SDS011;26844;53.686;-6.346;2024-03-22T07:18:28;4.00;;;3.90;;
41099;SDS011;26844;53.686;-6.346;2024-03-22T07:20:53;3.70;;;3.60;;
41099;SDS011;26844;53.686;-6.346;2024-03-22T07:23:19;3.30;;;3.20;;
41099;SDS011;26844;53.686;-6.346;2024-03-22T07:25:44;3.42;;;3.33;;
41099;SDS011;26844;53.686;-6.346;2024-03-22T07:28:11;3.40;;;3.30;;
41099;SDS011;26844;53.686;-6.346;2024-03-22T07:30:36;4.05;;;3.95;;
41099;SDS011;26844;53.686;-6.346;2024-03-22T07:33:02;3.60;;;3.50;;
41099;SDS011;26844;53.686;-6.346;2024-03-22T07:35:27;3.60;;;3.50;;
41099;SDS011;26844;53.686;-6.346;2024-03-22T07:37:53;3.08;;;2.97;;
41099;SDS011;26844;53.686;-6.346;2024-03-22T07:40:18;2.92;;;2.83;;
41099;SDS011;26844;53.686;-6.346;2024-03-22T07:42:45;2.70;;;2.60;;
41099;SDS011;26844;53.686;-6.346;2024-03-22T07:45:10;2.95;;;2.85;;
41099;SDS011;26844;53.686;-6.346;2024-03-22T07:47:35;2.67;;;2.58;;
41099;SDS011;26844;53.686;-6.346;2024-03-22T07:50:02;2.27;;;2.27;;
41099;SDS011;26844;53.686;-6.346;2024-03-22T07:52:27;2.10;;;2.10;;
41099;SDS011;26844;53.686;-6.346;2024-03-22T07:54:53;2.13;;;2.13;;
41099;SDS011;26844;53.686;-6.346;2024-03-22T07:57:18;2.33;;;2.30;;
41099;SDS011;26844;53.686;-6.346;2024-03-22T07:59:43;2.10;;;2.10;;
41099;SDS011;26844;53.686;-6.346;2024-03-22T08:02:09;2.10;;;2.10;;
41099;SDS011;26844;53.686;-6.346;2024-03-22T08:04:34;2.22;;;2.22;;
41099;SDS011;26844;53.686;-6.346;2024-03-22T08:06:59;1.83;;;1.83;;
41099;SDS011;26844;53.686;-6.346;2024-03-22T08:09:25;1.80;;;1.80;;
41099;SDS011;26844;53.686;-6.346;2024-03-22T08:11:50;1.70;;;1.70;;
41099;SDS011;26844;53.686;-6.346;2024-03-22T08:14:16;1.88;;;1.88;;
41099;SDS011;26844;53.686;-6.346;2024-03-22T08:16:42;1.90;;;1.90;;
41099;SDS011;26844;53.686;-6.346;2024-03-22T08:19:07;1.90;;;1.90;;
41099;SDS011;26844;53.686;-6.346;2024-03-22T08:21:32;2.10;;;2.10;;
41099;SDS011;26844;53.686;-6.346;2024-03-22T08:23:58;1.90;;;1.90;;
41099;SDS011;26844;53.686;-6.346;2024-03-22T08:26:23;2.60;;;2.50;;
41099;SDS011;26844;53.686;-6.346;2024-03-22T08:28:48;2.30;;;2.30;;
41099;SDS011;26844;53.686;-6.346;2024-03-22T08:31:14;2.28;;;2.28;;
41099;SDS011;26844;53.686;-6.346;2024-03-22T08:33:39;2.50;;;2.40;;
41099;SDS011;26844;53.686;-6.346;2024-03-22T08:36:07;1.90;;;1.90;;
41099;SDS011;26844;53.686;-6.346;2024-03-22T08:38:33;2.25;;;2.25;;
41099;SDS011;26844;53.686;-6.346;2024-03-22T08:40:58;2.60;;;2.50;;
41099;SDS011;26844;53.686;-6.346;2024-03-22T08:43:23;1.80;;;1.80;;
41099;SDS011;26844;53.686;-6.346;2024-03-22T08:45:51;1.90;;;1.90;;
41099;SDS011;26844;53.686;-6.346;2024-03-22T08:48:16;2.08;;;2.08;;
41099;SDS011;26844;53.686;-6.346;2024-03-22T08:50:42;2.17;;;2.17;;
41099;SDS011;26844;53.686;-6.346;2024-03-22T08:53:08;1.92;;;1.92;;
41099;SDS011;26844;53.686;-6.346;2024-03-22T08:55:33;2.33;;;2.30;;
41099;SDS011;26844;53.686;-6.346;2024-03-22T08:57:58;1.80;;;1.80;;
41099;SDS011;26844;53.686;-6.346;2024-03-22T09:00:24;1.70;;;1.70;;
41099;SDS011;26844;53.686;-6.346;2024-03-22T09:02:49;1.95;;;1.95;;
41099;SDS011;26844;53.686;-6.346;2024-03-22T09:05:14;1.58;;;1.58;;
41099;SDS011;26844;53.686;-6.346;2024-03-22T09:07:40;2.63;;;2.53;;
41099;SDS011;26844;53.686;-6.346;2024-03-22T09:10:06;2.53;;;2.42;;
41099;SDS011;26844;53.686;-6.346;2024-03-22T09:12:31;2.00;;;2.00;;
41099;SDS011;26844;53.686;-6.346;2024-03-22T09:14:56;2.20;;;2.20;;
41099;SDS011;26844;53.686;-6.346;2024-03-22T09:17:22;2.00;;;2.00;;
41099;SDS011;26844;53.686;-6.346;2024-03-22T09:19:47;2.10;;;2.10;;
41099;SDS011;26844;53.686;-6.346;2024-03-22T09:22:12;2.00;;;2.00;;
41099;SDS011;26844;53.686;-6.346;2024-03-22T09:24:38;2.00;;;2.00;;
41099;SDS011;26844;53.686;-6.346;2024-03-22T09:27:03;2.17;;;2.17;;
41099;SDS011;26844;53.686;-6.346;2024-03-22T09:29:33;2.17;;;2.17;;
41099;SDS011;26844;53.686;-6.346;2024-03-22T09:31:58;2.10;;;2.10;;
41099;SDS011;26844;53.686;-6.346;2024-03-22T09:34:24;2.00;;;2.00;;
41099;SDS011;26844;53.686;-6.346;2024-03-22T09:36:49;2.00;;;2.00;;
41099;SDS011;26844;53.686;-6.346;2024-03-22T09:39:14;2.35;;;2.30;;
41099;SDS011;26844;53.686;-6.346;2024-03-22T09:41:43;2.10;;;2.10;;
41099;SDS011;26844;53.686;-6.346;2024-03-22T09:44:10;1.92;;;1.92;;
41099;SDS011;26844;53.686;-6.346;2024-03-22T09:46:37;2.00;;;2.00;;
41099;SDS011;26844;53.686;-6.346;2024-03-22T09:49:03;1.98;;;1.98;;
41099;SDS011;26844;53.686;-6.346;2024-03-22T09:51:29;1.70;;;1.70;;
41099;SDS011;26844;53.686;-6.346;2024-03-22T09:53:54;1.98;;;1.98;;
41099;SDS011;26844;53.686;-6.346;2024-03-22T09:56:20;1.90;;;1.90;;
41099;SDS011;26844;53.686;-6.346;2024-03-22T09:58:46;1.85;;;1.85;;
41099;SDS011;26844;53.686;-6.346;2024-03-22T10:01:11;1.70;;;1.70;;
41099;SDS011;26844;53.686;-6.346;2024-03-22T10:03:37;1.90;;;1.90;;
41099;SDS011;26844;53.686;-6.346;2024-03-22T10:06:02;1.60;;;1.60;;
41099;SDS011;26844;53.686;-6.346;2024-03-22T10:08:28;1.60;;;1.60;;
41099;SDS011;26844;53.686;-6.346;2024-03-22T10:10:53;1.70;;;1.70;;
41099;SDS011;26844;53.686;-6.346;2024-03-22T10:13:18;1.70;;;1.70;;
41099;SDS011;26844;53.686;-6.346;2024-03-22T10:15:44;1.50;;;1.50;;
41099;SDS011;26844;53.686;-6.346;2024-03-22T10:18:09;1.40;;;1.40;;
41099;SDS011;26844;53.686;-6.346;2024-03-22T10:20:35;1.50;;;1.50;;
41099;SDS011;26844;53.686;-6.346;2024-03-22T10:23:00;1.50;;;1.50;;
41099;SDS011;26844;53.686;-6.346;2024-03-22T10:25:28;1.55;;;1.55;;
41099;SDS011;26844;53.686;-6.346;2024-03-22T10:27:54;1.30;;;1.30;;
41099;SDS011;26844;53.686;-6.346;2024-03-22T10:30:21;1.35;;;1.35;;
41099;SDS011;26844;53.686;-6.346;2024-03-22T10:32:46;1.40;;;1.40;;
41099;SDS011;26844;53.686;-6.346;2024-03-22T10:35:13;1.48;;;1.48;;
41099;SDS011;26844;53.686;-6.346;2024-03-22T10:37:39;1.40;;;1.40;;
41099;SDS011;26844;53.686;-6.346;2024-03-22T10:40:04;1.33;;;1.33;;
41099;SDS011;26844;53.686;-6.346;2024-03-22T10:42:34;1.40;;;1.40;;
41099;SDS011;26844;53.686;-6.346;2024-03-22T10:45:00;1.40;;;1.40;;
41099;SDS011;26844;53.686;-6.346;2024-03-22T10:47:27;1.45;;;1.45;;
41099;SDS011;26844;53.686;-6.346;2024-03-22T10:49:53;1.10;;;1.10;;
41099;SDS011;26844;53.686;-6.346;2024-03-22T10:52:21;1.13;;;1.13;;
41099;SDS011;26844;53.686;-6.346;2024-03-22T10:54:46;1.33;;;1.33;;
41099;SDS011;26844;53.686;-6.346;2024-03-22T10:57:14;0.75;;;0.75;;
41099;SDS011;26844;53.686;-6.346;2024-03-22T10:59:43;0.60;;;0.60;;
41099;SDS011;26844;53.686;-6.346;2024-03-22T11:02:11;0.70;;;0.70;;
41099;SDS011;26844;53.686;-6.346;2024-03-22T11:04:36;0.65;;;0.65;;
41099;SDS011;26844;53.686;-6.346;2024-03-22T11:07:01;0.57;;;0.57;;
41099;SDS011;26844;53.686;-6.346;2024-03-22T11:09:28;0.60;;;0.60;;
41099;SDS011;26844;53.686;-6.346;2024-03-22T11:11:55;0.80;;;0.80;;
41099;SDS011;26844;53.686;-6.346;2024-03-22T11:14:21;0.70;;;0.70;;
41099;SDS011;26844;53.686;-6.346;2024-03-22T11:16:48;0.60;;;0.60;;
41099;SDS011;26844;53.686;-6.346;2024-03-22T11:19:13;0.43;;;0.43;;
41099;SDS011;26844;53.686;-6.346;2024-03-22T11:21:39;0.47;;;0.47;;
41099;SDS011;26844;53.686;-6.346;2024-03-22T11:24:04;0.50;;;0.50;;
41099;SDS011;26844;53.686;-6.346;2024-03-22T11:26:30;0.50;;;0.50;;
41099;SDS011;26844;53.686;-6.346;2024-03-22T11:28:55;0.60;;;0.60;;
41099;SDS011;26844;53.686;-6.346;2024-03-22T11:31:20;0.70;;;0.70;;
41099;SDS011;26844;53.686;-6.346;2024-03-22T11:33:50;0.60;;;0.60;;
41099;SDS011;26844;53.686;-6.346;2024-03-22T11:36:16;0.70;;;0.70;;
41099;SDS011;26844;53.686;-6.346;2024-03-22T11:38:42;0.65;;;0.65;;
41099;SDS011;26844;53.686;-6.346;2024-03-22T11:41:08;0.57;;;0.57;;
41099;SDS011;26844;53.686;-6.346;2024-03-22T11:43:33;0.50;;;0.50;;
41099;SDS011;26844;53.686;-6.346;2024-03-22T11:45:59;0.57;;;0.57;;
41099;SDS011;26844;53.686;-6.346;2024-03-22T11:48:26;0.60;;;0.60;;
41099;SDS011;26844;53.686;-6.346;2024-03-22T11:50:51;0.60;;;0.60;;
41099;SDS011;26844;53.686;-6.346;2024-03-22T11:53:17;0.70;;;0.70;;
41099;SDS011;26844;53.686;-6.346;2024-03-22T11:55:42;0.80;;;0.80;;
41099;SDS011;26844;53.686;-6.346;2024-03-22T11:58:10;0.60;;;0.60;;
41099;SDS011;26844;53.686;-6.346;2024-03-22T12:00:37;0.70;;;0.70;;
41099;SDS011;26844;53.686;-6.346;2024-03-22T12:03:06;1.10;;;1.10;;
41099;SDS011;26844;53.686;-6.346;2024-03-22T12:05:31;0.80;;;0.80;;
41099;SDS011;26844;53.686;-6.346;2024-03-22T12:07:57;0.82;;;0.82;;
41099;SDS011;26844;53.686;-6.346;2024-03-22T12:10:22;0.73;;;0.73;;
41099;SDS011;26844;53.686;-6.346;2024-03-22T12:12:47;0.70;;;0.70;;
41099;SDS011;26844;53.686;-6.346;2024-03-22T12:15:12;0.80;;;0.80;;
41099;SDS011;26844;53.686;-6.346;2024-03-22T12:17:38;0.90;;;0.90;;
41099;SDS011;26844;53.686;-6.346;2024-03-22T12:20:05;0.80;;;0.80;;
41099;SDS011;26844;53.686;-6.346;2024-03-22T12:22:31;0.85;;;0.85;;
41099;SDS011;26844;53.686;-6.346;2024-03-22T12:24:56;1.27;;;1.27;;
41099;SDS011;26844;53.686;-6.346;2024-03-22T12:27:22;0.90;;;0.90;;
41099;SDS011;26844;53.686;-6.346;2024-03-22T12:29:47;0.98;;;0.98;;
41099;SDS011;26844;53.686;-6.346;2024-03-22T12:32:12;0.80;;;0.80;;
41099;SDS011;26844;53.686;-6.346;2024-03-22T12:34:38;0.70;;;0.70;;
41099;SDS011;26844;53.686;-6.346;2024-03-22T12:37:03;0.70;;;0.70;;
41099;SDS011;26844;53.686;-6.346;2024-03-22T12:39:28;0.80;;;0.80;;
41099;SDS011;26844;53.686;-6.346;2024-03-22T12:41:54;0.70;;;0.70;;
41099;SDS011;26844;53.686;-6.346;2024-03-22T12:44:19;0.70;;;0.70;;
41099;SDS011;26844;53.686;-6.346;2024-03-22T12:46:45;0.70;;;0.70;;
41099;SDS011;26844;53.686;-6.346;2024-03-22T12:49:10;0.50;;;0.50;;
41099;SDS011;26844;53.686;-6.346;2024-03-22T12:51:36;0.55;;;0.55;;
41099;SDS011;26844;53.686;-6.346;2024-03-22T12:54:02;0.50;;;0.50;;
41099;SDS011;26844;53.686;-6.346;2024-03-22T12:56:28;0.50;;;0.50;;
41099;SDS011;26844;53.686;-6.346;2024-03-22T12:58:53;0.50;;;0.50;;
41099;SDS011;26844;53.686;-6.346;2024-03-22T13:01:18;0.70;;;0.70;;
41099;SDS011;26844;53.686;-6.346;2024-03-22T13:03:44;0.70;;;0.70;;
41099;SDS011;26844;53.686;-6.346;2024-03-22T13:06:09;0.57;;;0.57;;
41099;SDS011;26844;53.686;-6.346;2024-03-22T13:08:35;0.50;;;0.50;;
41099;SDS011;26844;53.686;-6.346;2024-03-22T13:11:00;0.70;;;0.70;;
41099;SDS011;26844;53.686;-6.346;2024-03-22T13:13:26;1.40;;;1.40;;
41099;SDS011;26844;53.686;-6.346;2024-03-22T13:15:51;1.10;;;1.10;;
41099;SDS011;26844;53.686;-6.346;2024-03-22T13:18:17;0.95;;;0.95;;
41099;SDS011;26844;53.686;-6.346;2024-03-22T13:20:42;1.00;;;1.00;;
41099;SDS011;26844;53.686;-6.346;2024-03-22T13:23:08;1.40;;;1.40;;
41099;SDS011;26844;53.686;-6.346;2024-03-22T13:25:34;2.53;;;2.42;;
41099;SDS011;26844;53.686;-6.346;2024-03-22T13:28:03;4.20;;;4.10;;
41099;SDS011;26844;53.686;-6.346;2024-03-22T13:30:30;6.00;;;5.80;;
41099;SDS011;26844;53.686;-6.346;2024-03-22T13:32:55;5.10;;;4.90;;
41099;SDS011;26844;53.686;-6.346;2024-03-22T13:35:21;4.53;;;4.43;;
41099;SDS011;26844;53.686;-6.346;2024-03-22T13:37:46;3.20;;;3.10;;
41099;SDS011;26844;53.686;-6.346;2024-03-22T13:40:12;2.22;;;2.22;;
41099;SDS011;26844;53.686;-6.346;2024-03-22T13:42:37;2.13;;;2.13;;
41099;SDS011;26844;53.686;-6.346;2024-03-22T13:45:02;2.10;;;2.10;;
41099;SDS011;26844;53.686;-6.346;2024-03-22T13:47:28;1.70;;;1.70;;
41099;SDS011;26844;53.686;-6.346;2024-03-22T13:49:53;2.08;;;2.08;;
41099;SDS011;26844;53.686;-6.346;2024-03-22T13:52:19;2.40;;;2.30;;
41099;SDS011;26844;53.686;-6.346;2024-03-22T13:54:45;3.85;;;3.75;;
41099;SDS011;26844;53.686;-6.346;2024-03-22T13:57:11;3.58;;;3.47;;
41099;SDS011;26844;53.686;-6.346;2024-03-22T13:59:36;3.70;;;3.60;;
41099;SDS011;26844;53.686;-6.346;2024-03-22T14:02:01;4.78;;;4.65;;
41099;SDS011;26844;53.686;-6.346;2024-03-22T14:04:28;5.68;;;5.47;;
41099;SDS011;26844;53.686;-6.346;2024-03-22T14:06:54;6.70;;;6.50;;
41099;SDS011;26844;53.686;-6.346;2024-03-22T14:09:19;5.40;;;5.20;;
41099;SDS011;26844;53.686;-6.346;2024-03-22T14:11:44;6.13;;;5.93;;
41099;SDS011;26844;53.686;-6.346;2024-03-22T14:16:38;4.90;;;4.70;;
41099;SDS011;26844;53.686;-6.346;2024-03-22T14:19:03;5.47;;;5.28;;
41099;SDS011;26844;53.686;-6.346;2024-03-22T14:21:28;4.75;;;4.57;;
41099;SDS011;26844;53.686;-6.346;2024-03-22T14:23:53;4.95;;;4.75;;
41099;SDS011;26844;53.686;-6.346;2024-03-22T14:26:20;5.22;;;5.03;;